Summit, Wisconsin
Current Conditions -  °F | °C
As of 8:15 PM on Friday 24 Oct 2014 (Local Time) from KRRL Reporting Station
Overcast Overcast  
Wind Chill: 55°   Ceiling: 2000
Heat Index: 55°   Visibility: 10mi
Dew Point: 50°   Wind: 6mph
Humidity: 82%   Direction: 210°SSW
Pressure: 29.86"   Gusts: NA
Location:  45.3595°N, 89.45°W
Report Text: KRRL 250115Z AUTO 21005KT 10SM OVC020 13/10 A2986 RMK AO2 T01300100
Loading
Personal Weather Stations






























Interactive Weather Map
Tropical Storm Tracking
New forecast layout! Learn more

10-Day Weather Forecast

Advertisements
Track Severe Weather on mobile